sensor_id;sensor_type;location;lat;lon;timestamp;P1;durP1;ratioP1;P2;durP2;ratioP2
56824;SDS011;42705;50.326;18.772;2022-11-21T00:02:11;81.47;;;32.93;;
56824;SDS011;42705;50.326;18.772;2022-11-21T00:07:32;81.43;;;32.87;;
56824;SDS011;42705;50.326;18.772;2022-11-21T00:12:54;88.33;;;37.97;;
56824;SDS011;42705;50.326;18.772;2022-11-21T00:18:16;104.43;;;43.20;;
56824;SDS011;42705;50.326;18.772;2022-11-21T00:23:37;105.10;;;42.65;;
56824;SDS011;42705;50.326;18.772;2022-11-21T00:28:58;83.97;;;35.90;;
56824;SDS011;42705;50.326;18.772;2022-11-21T00:34:19;86.20;;;36.65;;
56824;SDS011;42705;50.326;18.772;2022-11-21T00:39:40;77.67;;;36.60;;
56824;SDS011;42705;50.326;18.772;2022-11-21T00:45:01;86.50;;;39.77;;
56824;SDS011;42705;50.326;18.772;2022-11-21T00:50:23;89.07;;;38.80;;
56824;SDS011;42705;50.326;18.772;2022-11-21T00:55:44;85.17;;;38.45;;
56824;SDS011;42705;50.326;18.772;2022-11-21T01:01:06;93.60;;;37.73;;
56824;SDS011;42705;50.326;18.772;2022-11-21T01:06:31;72.50;;;32.35;;
56824;SDS011;42705;50.326;18.772;2022-11-21T01:11:52;79.32;;;33.35;;
56824;SDS011;42705;50.326;18.772;2022-11-21T01:17:13;78.33;;;32.13;;
56824;SDS011;42705;50.326;18.772;2022-11-21T01:22:35;83.87;;;34.43;;
56824;SDS011;42705;50.326;18.772;2022-11-21T01:27:56;78.25;;;34.10;;
56824;SDS011;42705;50.326;18.772;2022-11-21T01:33:17;75.80;;;32.67;;
56824;SDS011;42705;50.326;18.772;2022-11-21T01:38:38;79.37;;;34.47;;
56824;SDS011;42705;50.326;18.772;2022-11-21T01:44:03;71.55;;;31.40;;
56824;SDS011;42705;50.326;18.772;2022-11-21T01:49:43;71.47;;;31.30;;
56824;SDS011;42705;50.326;18.772;2022-11-21T01:55:07;68.28;;;30.08;;
56824;SDS011;42705;50.326;18.772;2022-11-21T02:00:31;73.00;;;31.97;;
56824;SDS011;42705;50.326;18.772;2022-11-21T02:05:56;76.50;;;34.90;;
56824;SDS011;42705;50.326;18.772;2022-11-21T02:16:47;73.35;;;31.27;;
56824;SDS011;42705;50.326;18.772;2022-11-21T02:22:11;69.12;;;30.35;;
56824;SDS011;42705;50.326;18.772;2022-11-21T02:28:16;71.25;;;31.45;;
56824;SDS011;42705;50.326;18.772;2022-11-21T02:33:35;68.57;;;31.35;;
56824;SDS011;42705;50.326;18.772;2022-11-21T02:38:56;68.40;;;32.08;;
56824;SDS011;42705;50.326;18.772;2022-11-21T02:44:19;75.10;;;34.08;;
56824;SDS011;42705;50.326;18.772;2022-11-21T02:49:55;71.57;;;33.55;;
56824;SDS011;42705;50.326;18.772;2022-11-21T02:55:36;68.20;;;32.58;;
56824;SDS011;42705;50.326;18.772;2022-11-21T03:00:58;67.10;;;30.45;;
56824;SDS011;42705;50.326;18.772;2022-11-21T03:06:19;57.13;;;26.25;;
56824;SDS011;42705;50.326;18.772;2022-11-21T03:11:40;63.23;;;29.70;;
56824;SDS011;42705;50.326;18.772;2022-11-21T03:17:01;73.07;;;32.07;;
56824;SDS011;42705;50.326;18.772;2022-11-21T03:22:24;67.58;;;29.75;;
56824;SDS011;42705;50.326;18.772;2022-11-21T03:27:45;62.40;;;26.30;;
56824;SDS011;42705;50.326;18.772;2022-11-21T03:33:07;56.90;;;26.97;;
56824;SDS011;42705;50.326;18.772;2022-11-21T03:38:28;53.60;;;25.48;;
56824;SDS011;42705;50.326;18.772;2022-11-21T03:43:49;52.43;;;24.05;;
56824;SDS011;42705;50.326;18.772;2022-11-21T03:49:10;50.50;;;23.53;;
56824;SDS011;42705;50.326;18.772;2022-11-21T03:54:33;49.42;;;22.82;;
56824;SDS011;42705;50.326;18.772;2022-11-21T03:59:54;46.20;;;19.70;;
56824;SDS011;42705;50.326;18.772;2022-11-21T04:05:15;47.40;;;21.75;;
56824;SDS011;42705;50.326;18.772;2022-11-21T04:10:36;44.67;;;20.17;;
56824;SDS011;42705;50.326;18.772;2022-11-21T04:15:57;36.20;;;16.17;;
56824;SDS011;42705;50.326;18.772;2022-11-21T04:21:18;45.63;;;20.93;;
56824;SDS011;42705;50.326;18.772;2022-11-21T04:26:39;43.57;;;19.73;;
56824;SDS011;42705;50.326;18.772;2022-11-21T04:32:00;36.33;;;18.50;;
56824;SDS011;42705;50.326;18.772;2022-11-21T04:37:21;35.52;;;16.87;;
56824;SDS011;42705;50.326;18.772;2022-11-21T04:42:42;44.17;;;20.93;;
56824;SDS011;42705;50.326;18.772;2022-11-21T04:48:06;35.60;;;17.17;;
56824;SDS011;42705;50.326;18.772;2022-11-21T04:53:27;51.63;;;23.32;;
56824;SDS011;42705;50.326;18.772;2022-11-21T04:58:50;44.15;;;20.92;;
56824;SDS011;42705;50.326;18.772;2022-11-21T05:04:13;49.25;;;21.93;;
56824;SDS011;42705;50.326;18.772;2022-11-21T05:09:34;41.58;;;19.12;;
56824;SDS011;42705;50.326;18.772;2022-11-21T05:14:55;43.08;;;20.52;;
56824;SDS011;42705;50.326;18.772;2022-11-21T05:20:16;47.75;;;21.60;;
56824;SDS011;42705;50.326;18.772;2022-11-21T05:25:38;48.23;;;22.22;;
56824;SDS011;42705;50.326;18.772;2022-11-21T05:30:59;52.95;;;25.68;;
56824;SDS011;42705;50.326;18.772;2022-11-21T05:36:20;62.40;;;26.12;;
56824;SDS011;42705;50.326;18.772;2022-11-21T05:41:41;49.33;;;22.67;;
56824;SDS011;42705;50.326;18.772;2022-11-21T05:47:02;57.87;;;24.97;;
56824;SDS011;42705;50.326;18.772;2022-11-21T05:52:23;54.10;;;22.77;;
56824;SDS011;42705;50.326;18.772;2022-11-21T05:57:44;53.13;;;23.23;;
56824;SDS011;42705;50.326;18.772;2022-11-21T06:03:06;58.97;;;28.63;;
56824;SDS011;42705;50.326;18.772;2022-11-21T06:08:50;51.37;;;24.82;;
56824;SDS011;42705;50.326;18.772;2022-11-21T06:14:10;53.28;;;26.10;;
56824;SDS011;42705;50.326;18.772;2022-11-21T06:19:31;50.00;;;24.07;;
56824;SDS011;42705;50.326;18.772;2022-11-21T06:24:52;55.13;;;24.20;;
56824;SDS011;42705;50.326;18.772;2022-11-21T06:30:13;49.37;;;25.03;;
56824;SDS011;42705;50.326;18.772;2022-11-21T06:35:35;63.42;;;28.62;;
56824;SDS011;42705;50.326;18.772;2022-11-21T06:41:02;52.15;;;25.40;;
56824;SDS011;42705;50.326;18.772;2022-11-21T06:46:36;50.95;;;23.50;;
56824;SDS011;42705;50.326;18.772;2022-11-21T06:51:57;60.00;;;28.23;;
56824;SDS011;42705;50.326;18.772;2022-11-21T06:57:19;67.58;;;31.25;;
56824;SDS011;42705;50.326;18.772;2022-11-21T07:02:40;73.55;;;30.23;;
56824;SDS011;42705;50.326;18.772;2022-11-21T07:08:02;84.50;;;36.68;;
56824;SDS011;42705;50.326;18.772;2022-11-21T07:13:24;81.85;;;34.90;;
56824;SDS011;42705;50.326;18.772;2022-11-21T07:18:45;77.80;;;35.43;;
56824;SDS011;42705;50.326;18.772;2022-11-21T07:24:06;71.00;;;33.65;;
56824;SDS011;42705;50.326;18.772;2022-11-21T07:29:27;62.73;;;30.95;;
56824;SDS011;42705;50.326;18.772;2022-11-21T07:34:48;71.65;;;34.45;;
56824;SDS011;42705;50.326;18.772;2022-11-21T07:40:10;72.17;;;33.10;;
56824;SDS011;42705;50.326;18.772;2022-11-21T07:45:32;76.80;;;34.40;;
56824;SDS011;42705;50.326;18.772;2022-11-21T07:50:54;76.55;;;36.28;;
56824;SDS011;42705;50.326;18.772;2022-11-21T07:56:15;75.70;;;33.83;;
56824;SDS011;42705;50.326;18.772;2022-11-21T08:01:36;64.72;;;31.62;;
56824;SDS011;42705;50.326;18.772;2022-11-21T08:06:57;72.00;;;33.95;;
56824;SDS011;42705;50.326;18.772;2022-11-21T08:12:18;71.65;;;32.95;;
56824;SDS011;42705;50.326;18.772;2022-11-21T08:17:39;67.47;;;32.10;;
56824;SDS011;42705;50.326;18.772;2022-11-21T08:23:00;71.47;;;34.65;;
56824;SDS011;42705;50.326;18.772;2022-11-21T08:28:21;58.00;;;29.33;;
56824;SDS011;42705;50.326;18.772;2022-11-21T08:33:42;80.00;;;38.43;;
56824;SDS011;42705;50.326;18.772;2022-11-21T08:39:03;69.37;;;33.23;;
56824;SDS011;42705;50.326;18.772;2022-11-21T08:44:25;76.13;;;34.83;;
56824;SDS011;42705;50.326;18.772;2022-11-21T08:49:46;67.75;;;31.87;;
56824;SDS011;42705;50.326;18.772;2022-11-21T08:55:08;68.00;;;34.63;;
56824;SDS011;42705;50.326;18.772;2022-11-21T09:00:30;89.55;;;37.33;;
56824;SDS011;42705;50.326;18.772;2022-11-21T09:05:51;72.80;;;32.95;;
56824;SDS011;42705;50.326;18.772;2022-11-21T09:11:12;73.78;;;35.08;;
56824;SDS011;42705;50.326;18.772;2022-11-21T09:16:33;57.03;;;29.37;;
56824;SDS011;42705;50.326;18.772;2022-11-21T09:22:12;41.60;;;21.62;;
56824;SDS011;42705;50.326;18.772;2022-11-21T09:27:33;47.88;;;24.35;;
56824;SDS011;42705;50.326;18.772;2022-11-21T09:32:58;38.98;;;21.80;;
56824;SDS011;42705;50.326;18.772;2022-11-21T09:38:24;33.88;;;17.77;;
56824;SDS011;42705;50.326;18.772;2022-11-21T09:49:27;28.25;;;14.40;;
56824;SDS011;42705;50.326;18.772;2022-11-21T09:54:49;25.97;;;14.13;;
56824;SDS011;42705;50.326;18.772;2022-11-21T10:00:19;32.55;;;15.98;;
56824;SDS011;42705;50.326;18.772;2022-11-21T10:05:48;32.10;;;16.80;;
56824;SDS011;42705;50.326;18.772;2022-11-21T10:35:16;26.80;;;13.40;;
56824;SDS011;42705;50.326;18.772;2022-11-21T10:40:44;24.07;;;12.23;;
56824;SDS011;42705;50.326;18.772;2022-11-21T10:46:22;25.52;;;13.25;;
56824;SDS011;42705;50.326;18.772;2022-11-21T10:57:25;20.17;;;11.53;;
56824;SDS011;42705;50.326;18.772;2022-11-21T11:08:25;18.25;;;10.05;;
56824;SDS011;42705;50.326;18.772;2022-11-21T11:14:02;17.32;;;9.75;;
56824;SDS011;42705;50.326;18.772;2022-11-21T11:19:30;17.62;;;10.03;;
56824;SDS011;42705;50.326;18.772;2022-11-21T11:24:51;16.77;;;9.00;;
56824;SDS011;42705;50.326;18.772;2022-11-21T11:30:14;17.17;;;9.03;;
56824;SDS011;42705;50.326;18.772;2022-11-21T11:35:37;18.05;;;9.43;;
56824;SDS011;42705;50.326;18.772;2022-11-21T11:40:59;18.40;;;9.45;;
56824;SDS011;42705;50.326;18.772;2022-11-21T11:46:35;18.37;;;9.35;;
56824;SDS011;42705;50.326;18.772;2022-11-21T11:52:24;15.35;;;8.45;;
56824;SDS011;42705;50.326;18.772;2022-11-21T11:57:50;17.87;;;8.73;;
56824;SDS011;42705;50.326;18.772;2022-11-21T12:08:54;15.98;;;8.88;;
56824;SDS011;42705;50.326;18.772;2022-11-21T12:20:35;14.43;;;7.85;;
56824;SDS011;42705;50.326;18.772;2022-11-21T12:37:44;13.60;;;7.78;;
56824;SDS011;42705;50.326;18.772;2022-11-21T12:55:10;14.30;;;8.05;;
56824;SDS011;42705;50.326;18.772;2022-11-21T13:06:26;14.70;;;7.37;;
56824;SDS011;42705;50.326;18.772;2022-11-21T13:12:08;14.07;;;7.90;;
56824;SDS011;42705;50.326;18.772;2022-11-21T13:17:53;16.20;;;8.78;;
56824;SDS011;42705;50.326;18.772;2022-11-21T13:23:37;19.12;;;9.18;;
56824;SDS011;42705;50.326;18.772;2022-11-21T13:34:35;17.98;;;9.10;;
56824;SDS011;42705;50.326;18.772;2022-11-21T13:40:33;15.85;;;8.33;;
56824;SDS011;42705;50.326;18.772;2022-11-21T13:45:42;18.15;;;9.48;;
56824;SDS011;42705;50.326;18.772;2022-11-21T14:08:19;20.08;;;10.00;;
56824;SDS011;42705;50.326;18.772;2022-11-21T14:13:42;20.50;;;10.82;;
56824;SDS011;42705;50.326;18.772;2022-11-21T14:19:11;21.20;;;11.45;;
56824;SDS011;42705;50.326;18.772;2022-11-21T14:24:34;19.95;;;11.03;;
56824;SDS011;42705;50.326;18.772;2022-11-21T14:29:55;22.95;;;11.80;;
56824;SDS011;42705;50.326;18.772;2022-11-21T14:35:21;22.20;;;12.00;;
56824;SDS011;42705;50.326;18.772;2022-11-21T14:40:44;22.05;;;12.18;;
56824;SDS011;42705;50.326;18.772;2022-11-21T14:46:11;21.48;;;11.83;;
56824;SDS011;42705;50.326;18.772;2022-11-21T14:51:35;22.13;;;11.63;;
56824;SDS011;42705;50.326;18.772;2022-11-21T14:56:58;15.93;;;9.93;;
56824;SDS011;42705;50.326;18.772;2022-11-21T15:02:28;16.93;;;9.93;;
56824;SDS011;42705;50.326;18.772;2022-11-21T15:07:51;21.52;;;12.20;;
56824;SDS011;42705;50.326;18.772;2022-11-21T15:13:14;22.32;;;12.90;;
56824;SDS011;42705;50.326;18.772;2022-11-21T15:18:38;24.87;;;15.50;;
56824;SDS011;42705;50.326;18.772;2022-11-21T15:41:24;21.65;;;12.03;;
56824;SDS011;42705;50.326;18.772;2022-11-21T15:46:34;20.10;;;12.37;;
56824;SDS011;42705;50.326;18.772;2022-11-21T15:51:59;22.60;;;13.38;;
56824;SDS011;42705;50.326;18.772;2022-11-21T15:57:20;28.10;;;14.10;;
56824;SDS011;42705;50.326;18.772;2022-11-21T16:02:41;25.17;;;13.70;;
56824;SDS011;42705;50.326;18.772;2022-11-21T16:08:03;30.35;;;15.05;;
56824;SDS011;42705;50.326;18.772;2022-11-21T16:13:24;27.80;;;15.10;;
56824;SDS011;42705;50.326;18.772;2022-11-21T16:18:46;37.30;;;18.42;;
56824;SDS011;42705;50.326;18.772;2022-11-21T16:24:07;39.58;;;23.62;;
56824;SDS011;42705;50.326;18.772;2022-11-21T16:29:28;35.65;;;19.65;;
56824;SDS011;42705;50.326;18.772;2022-11-21T16:34:49;40.67;;;22.37;;
56824;SDS011;42705;50.326;18.772;2022-11-21T16:40:11;39.38;;;21.48;;
56824;SDS011;42705;50.326;18.772;2022-11-21T16:45:32;35.83;;;21.40;;
56824;SDS011;42705;50.326;18.772;2022-11-21T16:50:53;32.90;;;19.00;;
56824;SDS011;42705;50.326;18.772;2022-11-21T16:56:14;35.98;;;19.12;;
56824;SDS011;42705;50.326;18.772;2022-11-21T17:01:36;30.97;;;17.07;;
56824;SDS011;42705;50.326;18.772;2022-11-21T17:06:57;30.12;;;16.82;;
56824;SDS011;42705;50.326;18.772;2022-11-21T17:12:20;31.27;;;17.60;;
56824;SDS011;42705;50.326;18.772;2022-11-21T17:17:42;38.45;;;18.55;;
56824;SDS011;42705;50.326;18.772;2022-11-21T17:23:03;31.93;;;17.55;;
56824;SDS011;42705;50.326;18.772;2022-11-21T17:28:24;33.92;;;18.23;;
56824;SDS011;42705;50.326;18.772;2022-11-21T17:33:45;30.68;;;18.32;;
56824;SDS011;42705;50.326;18.772;2022-11-21T17:39:08;35.73;;;18.30;;
56824;SDS011;42705;50.326;18.772;2022-11-21T17:44:31;34.92;;;19.00;;
56824;SDS011;42705;50.326;18.772;2022-11-21T17:49:52;32.25;;;18.15;;
56824;SDS011;42705;50.326;18.772;2022-11-21T17:55:14;31.80;;;17.92;;
56824;SDS011;42705;50.326;18.772;2022-11-21T18:00:35;42.60;;;23.05;;
56824;SDS011;42705;50.326;18.772;2022-11-21T18:06:00;37.93;;;20.77;;
56824;SDS011;42705;50.326;18.772;2022-11-21T18:11:28;39.27;;;19.15;;
56824;SDS011;42705;50.326;18.772;2022-11-21T18:16:52;35.52;;;20.52;;
56824;SDS011;42705;50.326;18.772;2022-11-21T18:22:14;39.83;;;20.32;;
56824;SDS011;42705;50.326;18.772;2022-11-21T18:27:35;40.88;;;21.73;;
56824;SDS011;42705;50.326;18.772;2022-11-21T18:32:58;39.40;;;22.07;;
56824;SDS011;42705;50.326;18.772;2022-11-21T18:38:19;37.90;;;21.20;;
56824;SDS011;42705;50.326;18.772;2022-11-21T18:43:41;36.40;;;19.67;;
56824;SDS011;42705;50.326;18.772;2022-11-21T18:49:03;41.68;;;20.82;;
56824;SDS011;42705;50.326;18.772;2022-11-21T18:54:25;35.17;;;21.55;;
56824;SDS011;42705;50.326;18.772;2022-11-21T18:59:46;33.23;;;18.90;;
56824;SDS011;42705;50.326;18.772;2022-11-21T19:05:07;37.38;;;18.80;;
56824;SDS011;42705;50.326;18.772;2022-11-21T19:10:29;31.27;;;17.67;;
56824;SDS011;42705;50.326;18.772;2022-11-21T19:15:50;33.00;;;19.30;;
56824;SDS011;42705;50.326;18.772;2022-11-21T19:21:12;36.13;;;20.52;;
56824;SDS011;42705;50.326;18.772;2022-11-21T19:26:35;31.70;;;18.35;;
56824;SDS011;42705;50.326;18.772;2022-11-21T19:37:19;34.70;;;19.90;;
56824;SDS011;42705;50.326;18.772;2022-11-21T19:42:40;36.85;;;21.42;;
56824;SDS011;42705;50.326;18.772;2022-11-21T19:48:02;39.33;;;21.40;;
56824;SDS011;42705;50.326;18.772;2022-11-21T19:53:24;33.20;;;20.05;;
56824;SDS011;42705;50.326;18.772;2022-11-21T19:58:46;35.95;;;20.40;;
56824;SDS011;42705;50.326;18.772;2022-11-21T20:04:09;36.48;;;21.25;;
56824;SDS011;42705;50.326;18.772;2022-11-21T20:14:52;33.60;;;20.25;;
56824;SDS011;42705;50.326;18.772;2022-11-21T20:20:16;33.33;;;20.25;;
56824;SDS011;42705;50.326;18.772;2022-11-21T20:25:43;33.85;;;19.15;;
56824;SDS011;42705;50.326;18.772;2022-11-21T20:31:12;33.53;;;19.48;;
56824;SDS011;42705;50.326;18.772;2022-11-21T20:36:36;25.80;;;15.30;;
56824;SDS011;42705;50.326;18.772;2022-11-21T20:41:59;25.75;;;15.60;;
56824;SDS011;42705;50.326;18.772;2022-11-21T20:47:21;26.15;;;15.88;;
56824;SDS011;42705;50.326;18.772;2022-11-21T20:52:42;24.37;;;14.70;;
56824;SDS011;42705;50.326;18.772;2022-11-21T20:58:04;24.52;;;14.83;;
56824;SDS011;42705;50.326;18.772;2022-11-21T21:03:26;26.30;;;15.30;;
56824;SDS011;42705;50.326;18.772;2022-11-21T21:08:50;25.40;;;15.03;;
56824;SDS011;42705;50.326;18.772;2022-11-21T21:14:13;27.82;;;16.17;;
56824;SDS011;42705;50.326;18.772;2022-11-21T21:19:38;28.15;;;15.88;;
56824;SDS011;42705;50.326;18.772;2022-11-21T21:24:59;27.15;;;15.45;;
56824;SDS011;42705;50.326;18.772;2022-11-21T21:30:21;33.50;;;18.17;;
56824;SDS011;42705;50.326;18.772;2022-11-21T21:35:42;33.50;;;19.85;;
56824;SDS011;42705;50.326;18.772;2022-11-21T21:41:09;31.87;;;18.62;;
56824;SDS011;42705;50.326;18.772;2022-11-21T21:46:32;34.63;;;19.55;;
56824;SDS011;42705;50.326;18.772;2022-11-21T21:51:54;43.05;;;23.67;;
56824;SDS011;42705;50.326;18.772;2022-11-21T21:57:15;37.98;;;23.25;;
56824;SDS011;42705;50.326;18.772;2022-11-21T22:02:35;36.70;;;20.65;;
56824;SDS011;42705;50.326;18.772;2022-11-21T22:07:58;45.43;;;25.37;;
56824;SDS011;42705;50.326;18.772;2022-11-21T22:13:20;53.00;;;28.30;;
56824;SDS011;42705;50.326;18.772;2022-11-21T22:18:41;115.47;;;55.05;;
56824;SDS011;42705;50.326;18.772;2022-11-21T22:24:03;111.30;;;55.28;;
56824;SDS011;42705;50.326;18.772;2022-11-21T22:29:33;100.87;;;44.65;;
56824;SDS011;42705;50.326;18.772;2022-11-21T22:34:54;115.75;;;50.28;;
56824;SDS011;42705;50.326;18.772;2022-11-21T22:40:15;56.33;;;29.03;;
56824;SDS011;42705;50.326;18.772;2022-11-21T22:45:36;88.25;;;40.98;;
56824;SDS011;42705;50.326;18.772;2022-11-21T22:50:57;98.45;;;42.83;;
56824;SDS011;42705;50.326;18.772;2022-11-21T22:56:19;107.70;;;46.98;;
56824;SDS011;42705;50.326;18.772;2022-11-21T23:01:43;98.50;;;44.20;;
56824;SDS011;42705;50.326;18.772;2022-11-21T23:07:04;95.57;;;43.70;;
56824;SDS011;42705;50.326;18.772;2022-11-21T23:12:25;113.68;;;52.53;;
56824;SDS011;42705;50.326;18.772;2022-11-21T23:17:49;140.92;;;60.20;;
56824;SDS011;42705;50.326;18.772;2022-11-21T23:23:12;143.68;;;58.48;;
56824;SDS011;42705;50.326;18.772;2022-11-21T23:28:33;140.90;;;62.55;;
56824;SDS011;42705;50.326;18.772;2022-11-21T23:33:55;131.67;;;59.88;;
56824;SDS011;42705;50.326;18.772;2022-11-21T23:39:16;152.57;;;62.10;;
56824;SDS011;42705;50.326;18.772;2022-11-21T23:44:37;159.70;;;69.55;;
56824;SDS011;42705;50.326;18.772;2022-11-21T23:49:58;193.57;;;79.45;;
56824;SDS011;42705;50.326;18.772;2022-11-21T23:55:19;199.57;;;79.22;;
